Pagina principale
METAR-TAF:

METAR-TAF

Aeroporti :

Shawbury, Inghilterra

latitudine: 52-48N, longitudine: 002-40W, altezza: 76 m

Osservazione

Il bollettino è stato emesso 1 ora e 9 minuti fa, alle 01:50 UTC
Vento 11 kt da sud
Temperature 8°C
Umidità 81%
Pressione 1003 hPa
Visibilità 10 km o più

METAR: EGOS 240150Z AUTO 17011KT 9999 FEW045/// SCT160/// 08/05 Q1003

Ora: 03:59 (02:59 UTC)

Previsione

Il bollettino è stato emesso 13 ore e 12 minuti fa, alle 13:47 UTC
Previsione valida dal 23 alle 15 UTC al 23 alle 18 UTC
Vento 10 kt da ovest
Visibilità 10 km o più
Poco nuvoloso ad un'altezza di 2000 ft
Nuvoloso ad un'altezza di 3000 ft

TAF: EGOS 231347Z 2315/2318 28010KT 9999 FEW020 BKN030

Osservazioni e previsioni meteorologiche di più di 4000 aeroporti (messaggi METAR e TAF).

Le stazioni disponibili sono rappresentate dai dischi gialli e rossi sulla carta.

Puntare il mouse per vedere il nome della stazione.

Clicca sopra per visualizzare le osservazioni e previsioni meteorologiche.

Per cambiare la mappa : fare clic sui pulsanti verdi con una croce nera per ingrandire, il pulsante verde con un trattino per diminuire, o sulla freccia verde per le mappe adiacenti.


METAR-TAF: